createdAt,value
2023-04-22T00:01:54.332Z,19.06
2023-04-22T00:04:24.652Z,19.09
2023-04-22T00:06:58.443Z,19.09
2023-04-22T00:09:29.821Z,18.92
2023-04-22T00:12:06.462Z,18.89
2023-04-22T00:14:37.378Z,18.95
2023-04-22T00:17:12.095Z,18.99
2023-04-22T00:19:45.170Z,19.20
2023-04-22T00:22:16.104Z,19.31
2023-04-22T00:24:46.542Z,19.12
2023-04-22T00:27:18.764Z,18.99
2023-04-22T00:29:50.013Z,18.98
2023-04-22T00:32:20.580Z,18.96
2023-04-22T00:34:51.108Z,18.88
2023-04-22T00:37:23.440Z,18.94
2023-04-22T00:39:54.485Z,18.79
2023-04-22T00:42:25.155Z,18.84
2023-04-22T00:44:55.594Z,18.87
2023-04-22T00:47:30.492Z,18.85
2023-04-22T00:50:03.612Z,18.78
2023-04-22T00:52:34.381Z,18.73
2023-04-22T00:55:04.438Z,18.78
2023-04-22T00:57:36.982Z,18.60
2023-04-22T01:00:11.256Z,18.62
2023-04-22T01:02:42.713Z,18.51
2023-04-22T01:05:13.546Z,18.44
2023-04-22T01:07:46.893Z,18.36
2023-04-22T01:10:18.378Z,18.33
2023-04-22T01:12:48.621Z,18.33
2023-04-22T01:15:18.799Z,18.37
2023-04-22T01:17:50.246Z,18.57
2023-04-22T01:20:21.130Z,18.45
2023-04-22T01:22:55.144Z,18.30
2023-04-22T01:25:30.138Z,18.10
2023-04-22T01:28:01.885Z,18.02
2023-04-22T01:30:32.690Z,18.00
2023-04-22T01:33:03.784Z,17.94
2023-04-22T01:35:38.133Z,17.85
2023-04-22T01:38:14.294Z,17.94
2023-04-22T01:40:46.392Z,17.87
2023-04-22T01:43:18.876Z,17.78
2023-04-22T01:45:49.358Z,17.69
2023-04-22T01:48:19.841Z,17.71
2023-04-22T01:50:50.929Z,17.82
2023-04-22T01:53:21.981Z,17.81
2023-04-22T01:55:55.295Z,17.69
2023-04-22T01:58:26.401Z,17.78
2023-04-22T02:00:57.354Z,17.87
2023-04-22T02:03:27.815Z,17.78
2023-04-22T02:05:58.612Z,17.82
2023-04-22T02:08:29.425Z,17.96
2023-04-22T02:11:02.155Z,18.06
2023-04-22T02:13:40.098Z,18.09
2023-04-22T02:16:10.812Z,18.16
2023-04-22T02:18:42.685Z,17.96
2023-04-22T02:21:14.525Z,17.85
2023-04-22T02:23:44.459Z,18.00
2023-04-22T02:26:14.212Z,18.04
2023-04-22T02:28:44.796Z,17.94
2023-04-22T02:31:14.752Z,17.99
2023-04-22T02:33:45.577Z,17.93
2023-04-22T02:36:15.407Z,17.81
2023-04-22T02:38:46.689Z,17.76
2023-04-22T02:41:19.043Z,17.61
2023-04-22T02:43:50.657Z,17.59
2023-04-22T02:46:21.041Z,17.65
2023-04-22T02:48:51.529Z,17.45
2023-04-22T02:51:23.544Z,17.28
2023-04-22T02:53:54.980Z,17.24
2023-04-22T02:56:25.448Z,17.11
2023-04-22T02:58:55.178Z,17.06
2023-04-22T03:01:25.976Z,17.04
2023-04-22T03:04:00.864Z,17.11
2023-04-22T03:06:32.224Z,17.06
2023-04-22T03:09:02.672Z,16.94
2023-04-22T03:11:32.458Z,17.30
2023-04-22T03:14:02.815Z,17.31
2023-04-22T03:16:33.689Z,17.17
2023-04-22T03:19:07.468Z,17.07
2023-04-22T03:21:38.151Z,17.00
2023-04-22T03:24:10.232Z,17.18
2023-04-22T03:26:45.374Z,17.21
2023-04-22T03:29:16.604Z,17.20
2023-04-22T03:31:48.355Z,17.28
2023-04-22T03:34:18.989Z,17.24
2023-04-22T03:36:49.091Z,17.38
2023-04-22T03:39:21.077Z,17.27
2023-04-22T03:41:52.734Z,17.15
2023-04-22T03:44:23.502Z,17.11
2023-04-22T03:46:54.876Z,17.07
2023-04-22T03:49:30.745Z,17.13
2023-04-22T03:52:02.081Z,17.10
2023-04-22T03:54:32.534Z,17.04
2023-04-22T03:57:04.348Z,17.17
2023-04-22T03:59:35.338Z,17.14
2023-04-22T04:02:05.243Z,17.32
2023-04-22T04:04:36.271Z,17.55
2023-04-22T04:07:09.420Z,17.51
2023-04-22T04:09:40.284Z,17.46
2023-04-22T04:12:10.839Z,17.61
2023-04-22T04:14:45.487Z,17.52
2023-04-22T04:17:21.423Z,17.35
2023-04-22T04:19:53.105Z,17.17
2023-04-22T04:22:24.036Z,17.06
2023-04-22T04:24:59.704Z,17.21
2023-04-22T04:27:34.804Z,17.18
2023-04-22T04:30:05.602Z,17.11
2023-04-22T04:32:49.648Z,17.11
2023-04-22T04:35:21.451Z,17.10
2023-04-22T04:37:56.901Z,17.31
2023-04-22T04:40:30.925Z,17.55
2023-04-22T04:43:14.216Z,17.56
2023-04-22T04:45:56.665Z,17.48
2023-04-22T04:48:37.209Z,17.71
2023-04-22T04:51:11.253Z,17.75
2023-04-22T04:54:01.417Z,17.73
2023-04-22T04:56:37.591Z,17.71
2023-04-22T04:59:08.457Z,17.76
2023-04-22T05:01:40.953Z,17.61
2023-04-22T05:04:14.857Z,17.52
2023-04-22T05:06:46.584Z,17.44
2023-04-22T05:09:18.765Z,17.31
2023-04-22T05:11:52.372Z,17.25
2023-04-22T05:14:24.055Z,17.20
2023-04-22T05:16:54.281Z,17.11
2023-04-22T05:19:24.768Z,16.97
2023-04-22T05:21:57.725Z,16.87
2023-04-22T05:24:27.881Z,16.72
2023-04-22T05:27:00.635Z,16.53
2023-04-22T05:29:33.002Z,16.33
2023-04-22T05:32:06.037Z,16.16
2023-04-22T05:34:37.504Z,15.97
2023-04-22T05:37:09.431Z,15.83
2023-04-22T05:39:42.709Z,15.70
2023-04-22T05:42:14.261Z,15.54
2023-04-22T05:44:47.782Z,15.44
2023-04-22T05:47:19.399Z,15.32
2023-04-22T05:49:49.923Z,15.29
2023-04-22T05:52:29.032Z,15.30
2023-04-22T05:55:09.466Z,15.26
2023-04-22T05:57:40.469Z,15.25
2023-04-22T06:00:21.991Z,15.26
2023-04-22T06:03:07.129Z,15.33
2023-04-22T06:05:38.799Z,15.25
2023-04-22T06:08:09.415Z,15.26
2023-04-22T06:10:39.237Z,15.22
2023-04-22T06:13:11.819Z,15.20
2023-04-22T06:15:42.894Z,15.13
2023-04-22T06:18:13.666Z,15.08
2023-04-22T06:20:43.650Z,15.05
2023-04-22T06:23:15.226Z,14.91
2023-04-22T06:25:46.242Z,14.84
2023-04-22T06:28:16.643Z,14.77
2023-04-22T06:30:47.647Z,14.74
2023-04-22T06:33:19.136Z,14.69
2023-04-22T06:35:49.781Z,14.65
2023-04-22T06:38:19.914Z,14.61
2023-04-22T06:41:09.852Z,14.58
2023-04-22T06:43:45.710Z,14.56
2023-04-22T06:46:41.692Z,14.48
2023-04-22T06:49:40.918Z,14.45
2023-04-22T06:52:31.496Z,14.42
2023-04-22T06:55:04.588Z,14.41
2023-04-22T06:57:36.682Z,14.41
2023-04-22T07:00:10.559Z,14.42
2023-04-22T07:02:43.057Z,14.37
2023-04-22T07:05:13.909Z,14.33
2023-04-22T07:07:44.955Z,14.33
2023-04-22T07:10:20.326Z,14.34
2023-04-22T07:13:13.429Z,14.29
2023-04-22T07:15:43.838Z,14.23
2023-04-22T07:18:15.443Z,14.23
2023-04-22T07:20:45.625Z,14.21
2023-04-22T07:23:15.419Z,14.13
2023-04-22T07:25:46.038Z,14.09
2023-04-22T07:28:16.948Z,14.27
2023-04-22T07:30:47.295Z,14.45
2023-04-22T07:33:17.019Z,14.65
2023-04-22T07:35:48.407Z,14.56
2023-04-22T07:38:19.171Z,14.34
2023-04-22T07:40:49.729Z,14.20
2023-04-22T07:43:19.476Z,14.10
2023-04-22T07:45:49.732Z,14.02
2023-04-22T07:48:19.571Z,13.76
2023-04-22T07:50:50.768Z,13.71
2023-04-22T07:53:21.765Z,13.62
2023-04-22T07:55:51.922Z,13.63
2023-04-22T07:58:22.241Z,13.66
2023-04-22T08:00:52.675Z,13.58
2023-04-22T08:03:23.891Z,13.51
2023-04-22T08:05:55.364Z,13.51
2023-04-22T08:08:25.799Z,13.48
2023-04-22T08:10:55.524Z,13.47
2023-04-22T08:13:32.330Z,13.45
2023-04-22T08:16:08.469Z,13.41
2023-04-22T08:18:39.185Z,13.44
2023-04-22T08:21:09.375Z,13.47
2023-04-22T08:23:39.988Z,13.44
2023-04-22T08:26:16.141Z,13.38
2023-04-22T08:28:48.158Z,13.45
2023-04-22T08:31:18.903Z,13.35
2023-04-22T08:33:49.718Z,13.35
2023-04-22T08:36:20.033Z,13.34
2023-04-22T08:38:51.943Z,13.34
2023-04-22T08:41:25.804Z,13.31
2023-04-22T08:43:56.184Z,13.47
2023-04-22T08:46:27.332Z,13.48
2023-04-22T08:49:10.192Z,13.47
2023-04-22T08:51:41.437Z,13.45
2023-04-22T08:54:13.123Z,13.37
2023-04-22T08:56:44.997Z,13.38
2023-04-22T08:59:16.917Z,13.40
2023-04-22T09:01:51.520Z,13.40
2023-04-22T09:04:22.056Z,13.37
2023-04-22T09:06:51.964Z,13.34
2023-04-22T09:09:23.034Z,13.28
2023-04-22T09:11:53.805Z,13.24
2023-04-22T09:14:24.958Z,13.21
2023-04-22T09:16:55.103Z,13.21
2023-04-22T09:19:27.054Z,13.18
2023-04-22T09:22:01.398Z,13.03
2023-04-22T09:24:32.135Z,12.93
2023-04-22T09:27:04.731Z,12.93
2023-04-22T09:29:34.804Z,13.03
2023-04-22T09:32:12.865Z,13.00
2023-04-22T09:34:56.949Z,12.86
2023-04-22T09:37:36.021Z,12.80
2023-04-22T09:40:20.146Z,12.84
2023-04-22T09:42:56.809Z,12.92
2023-04-22T09:45:32.284Z,12.96
2023-04-22T09:48:10.022Z,13.01
2023-04-22T09:50:43.041Z,13.10
2023-04-22T09:53:16.836Z,13.11
2023-04-22T09:55:53.333Z,13.18
2023-04-22T09:58:28.741Z,13.17
2023-04-22T10:01:00.657Z,13.21
2023-04-22T10:03:35.649Z,13.24
2023-04-22T10:06:08.897Z,13.25
2023-04-22T10:08:40.381Z,13.25
2023-04-22T10:11:11.132Z,13.30
2023-04-22T10:13:41.860Z,13.47
2023-04-22T10:16:12.106Z,13.66
2023-04-22T10:18:42.943Z,13.83
2023-04-22T10:21:14.571Z,14.09
2023-04-22T10:23:51.060Z,14.30
2023-04-22T10:26:56.195Z,14.45
2023-04-22T10:29:41.227Z,14.65
2023-04-22T10:32:11.915Z,14.89
2023-04-22T10:34:42.174Z,15.08
2023-04-22T10:37:15.468Z,15.15
2023-04-22T10:40:12.604Z,15.40
2023-04-22T10:42:44.608Z,15.51
2023-04-22T10:45:16.727Z,15.63
2023-04-22T10:47:47.975Z,15.81
2023-04-22T10:50:30.409Z,16.04
2023-04-22T10:53:24.149Z,16.11
2023-04-22T10:55:57.406Z,16.05
2023-04-22T10:58:29.194Z,16.22
2023-04-22T11:01:04.242Z,16.25
2023-04-22T11:03:35.216Z,16.45
2023-04-22T11:06:20.978Z,16.60
2023-04-22T11:09:08.894Z,17.02
2023-04-22T11:11:38.930Z,18.38
2023-04-22T11:14:10.862Z,19.13
2023-04-22T11:16:42.946Z,21.78
2023-04-22T11:19:14.281Z,25.06
2023-04-22T11:21:45.507Z,26.58
2023-04-22T11:24:21.772Z,27.50
2023-04-22T11:26:53.380Z,27.97
2023-04-22T11:29:24.549Z,28.11
2023-04-22T11:31:54.707Z,28.11
2023-04-22T11:34:24.582Z,28.72
2023-04-22T11:36:55.015Z,27.15
2023-04-22T11:39:26.397Z,26.47
2023-04-22T11:41:58.547Z,26.60
2023-04-22T11:44:28.610Z,26.92
2023-04-22T11:46:59.122Z,26.26
2023-04-22T11:49:29.423Z,27.47
2023-04-22T11:51:59.928Z,27.69
2023-04-22T11:54:35.748Z,28.21
2023-04-22T11:57:12.853Z,27.02
2023-04-22T11:59:44.169Z,26.27
2023-04-22T12:02:14.929Z,27.47
2023-04-22T12:04:45.949Z,27.42
2023-04-22T12:07:17.195Z,28.19
2023-04-22T12:09:47.639Z,27.91
2023-04-22T12:12:19.471Z,27.36
2023-04-22T12:14:50.202Z,26.62
2023-04-22T12:17:25.762Z,27.26
2023-04-22T12:19:57.335Z,27.83
2023-04-22T12:22:34.575Z,28.28
2023-04-22T12:25:05.073Z,29.33
2023-04-22T12:27:35.174Z,29.66
2023-04-22T12:30:07.250Z,29.25
2023-04-22T12:32:37.732Z,29.48
2023-04-22T12:35:09.765Z,29.79
2023-04-22T12:37:40.039Z,29.66
2023-04-22T12:40:12.205Z,30.54
2023-04-22T12:42:42.753Z,29.62
2023-04-22T12:45:13.735Z,28.60
2023-04-22T12:47:44.404Z,29.73
2023-04-22T12:50:14.241Z,29.88
2023-04-22T12:52:44.577Z,28.89
2023-04-22T12:55:15.369Z,29.04
2023-04-22T12:57:47.809Z,30.61
2023-04-22T13:00:19.032Z,30.68
2023-04-22T13:02:51.753Z,29.59
2023-04-22T13:05:23.003Z,29.71
2023-04-22T13:08:05.706Z,30.06
2023-04-22T13:10:37.918Z,30.27
2023-04-22T13:13:18.427Z,29.93
2023-04-22T13:15:54.834Z,28.62
2023-04-22T13:18:25.994Z,29.75
2023-04-22T13:20:58.066Z,30.37
2023-04-22T13:23:29.357Z,29.76
2023-04-22T13:26:00.112Z,29.03
2023-04-22T13:28:30.471Z,28.07
2023-04-22T13:31:00.577Z,29.65
2023-04-22T13:33:31.408Z,30.20
2023-04-22T13:36:03.080Z,29.39
2023-04-22T13:38:33.368Z,29.48
2023-04-22T13:41:03.637Z,30.03
2023-04-22T13:43:33.959Z,30.94
2023-04-22T13:46:04.452Z,31.33
2023-04-22T13:48:35.803Z,30.24
2023-04-22T13:51:05.861Z,30.30
2023-04-22T13:53:35.610Z,29.61
2023-04-22T13:56:05.778Z,29.15
2023-04-22T13:58:36.033Z,29.89
2023-04-22T14:01:08.890Z,28.89
2023-04-22T14:03:41.361Z,29.00
2023-04-22T14:06:12.482Z,27.59
2023-04-22T14:08:42.729Z,27.03
2023-04-22T14:11:14.147Z,27.69
2023-04-22T14:13:46.780Z,27.45
2023-04-22T14:16:18.947Z,27.28
2023-04-22T14:18:50.381Z,27.54
2023-04-22T14:21:21.426Z,28.67
2023-04-22T14:23:51.532Z,28.53
2023-04-22T14:26:21.483Z,29.31
2023-04-22T14:28:51.959Z,29.68
2023-04-22T14:31:25.837Z,29.83
2023-04-22T14:33:56.501Z,30.34
2023-04-22T14:36:26.287Z,30.56
2023-04-22T14:38:58.075Z,31.09
2023-04-22T14:41:28.832Z,30.43
2023-04-22T14:44:00.214Z,29.75
2023-04-22T14:46:31.574Z,28.80
2023-04-22T14:49:01.996Z,28.57
2023-04-22T14:51:34.049Z,28.36
2023-04-22T14:54:07.204Z,27.73
2023-04-22T14:56:37.621Z,27.60
2023-04-22T14:59:07.623Z,28.60
2023-04-22T15:01:38.400Z,29.02
2023-04-22T15:04:09.917Z,29.11
2023-04-22T15:06:41.775Z,28.94
2023-04-22T15:09:12.555Z,28.51
2023-04-22T15:11:42.389Z,29.04
2023-04-22T15:14:14.869Z,29.43
2023-04-22T15:16:47.617Z,30.43
2023-04-22T15:19:17.889Z,30.56
2023-04-22T15:21:48.380Z,29.82
2023-04-22T15:24:18.989Z,29.43
2023-04-22T15:26:50.476Z,29.54
2023-04-22T15:29:20.574Z,29.21
2023-04-22T15:31:51.912Z,28.57
2023-04-22T15:34:25.053Z,28.22
2023-04-22T15:36:55.751Z,28.75
2023-04-22T15:39:26.428Z,28.60
2023-04-22T15:41:58.094Z,28.77
2023-04-22T15:44:28.492Z,28.55
2023-04-22T15:47:03.047Z,28.19
2023-04-22T15:49:35.086Z,27.71
2023-04-22T15:52:05.856Z,27.76
2023-04-22T15:54:36.071Z,28.83
2023-04-22T15:57:06.277Z,29.89
2023-04-22T15:59:38.150Z,29.39
2023-04-22T16:02:09.398Z,30.09
2023-04-22T16:04:39.618Z,30.72
2023-04-22T16:07:11.349Z,30.91
2023-04-22T16:09:42.266Z,30.34
2023-04-22T16:12:12.056Z,29.31
2023-04-22T16:14:42.744Z,28.77
2023-04-22T16:17:13.597Z,28.80
2023-04-22T16:19:44.413Z,28.86
2023-04-22T16:22:14.245Z,29.03
2023-04-22T16:24:45.036Z,30.05
2023-04-22T16:27:17.560Z,30.78
2023-04-22T16:29:48.182Z,31.29
2023-04-22T16:32:18.183Z,31.12
2023-04-22T16:34:48.460Z,30.98
2023-04-22T16:37:18.661Z,31.66
2023-04-22T16:39:49.602Z,32.11
2023-04-22T16:42:19.847Z,32.59
2023-04-22T16:44:49.742Z,32.73
2023-04-22T16:47:20.460Z,32.69
2023-04-22T16:49:51.051Z,32.76
2023-04-22T16:52:21.655Z,32.66
2023-04-22T16:54:52.901Z,31.67
2023-04-22T16:57:23.230Z,31.97
2023-04-22T16:59:54.093Z,32.27
2023-04-22T17:02:25.567Z,33.03
2023-04-22T17:04:55.364Z,33.17
2023-04-22T17:07:25.617Z,33.35
2023-04-22T17:09:56.064Z,33.43
2023-04-22T17:12:27.784Z,33.87
2023-04-22T17:14:58.019Z,32.99
2023-04-22T17:17:28.080Z,33.23
2023-04-22T17:19:59.150Z,32.41
2023-04-22T17:22:30.064Z,33.70
2023-04-22T17:25:01.655Z,34.22
2023-04-22T17:27:32.661Z,34.57
2023-04-22T17:30:02.960Z,34.16
2023-04-22T17:32:33.503Z,33.07
2023-04-22T17:35:06.677Z,33.61
2023-04-22T17:37:36.595Z,35.04
2023-04-22T17:40:09.697Z,34.53
2023-04-22T17:42:45.923Z,34.45
2023-04-22T17:45:18.157Z,34.86
2023-04-22T17:47:49.744Z,35.85
2023-04-22T17:50:20.832Z,36.15
2023-04-22T17:52:51.345Z,36.98
2023-04-22T17:55:22.580Z,37.05
2023-04-22T17:57:53.178Z,37.73
2023-04-22T18:00:23.656Z,35.79
2023-04-22T18:02:58.470Z,33.65
2023-04-22T18:05:29.814Z,34.13
2023-04-22T18:08:03.523Z,32.56
2023-04-22T18:10:33.588Z,31.83
2023-04-22T18:13:04.130Z,31.78
2023-04-22T18:15:38.676Z,32.55
2023-04-22T18:18:08.609Z,32.58
2023-04-22T18:20:38.756Z,32.39
2023-04-22T18:23:11.103Z,31.47
2023-04-22T18:25:41.561Z,34.45
2023-04-22T18:28:11.957Z,35.24
2023-04-22T18:30:42.438Z,36.26
2023-04-22T18:33:13.414Z,34.22
2023-04-22T18:35:44.546Z,37.49
2023-04-22T18:38:14.402Z,35.86
2023-04-22T18:40:45.139Z,31.46
2023-04-22T18:43:15.718Z,32.35
2023-04-22T18:45:46.563Z,35.39
2023-04-22T18:48:16.371Z,35.56
2023-04-22T18:50:47.029Z,35.72
2023-04-22T18:53:17.185Z,34.64
2023-04-22T18:55:47.586Z,34.79
2023-04-22T18:58:18.898Z,36.33
2023-04-22T19:00:49.104Z,37.01
2023-04-22T19:03:20.517Z,36.92
2023-04-22T19:05:52.223Z,36.54
2023-04-22T19:08:22.775Z,36.39
2023-04-22T19:10:52.571Z,34.08
2023-04-22T19:13:29.675Z,30.82
2023-04-22T19:16:01.335Z,29.10
2023-04-22T19:18:32.748Z,28.38
2023-04-22T19:21:03.799Z,27.74
2023-04-22T19:23:38.247Z,27.38
2023-04-22T19:26:10.739Z,27.02
2023-04-22T19:28:48.134Z,26.84
2023-04-22T19:31:19.236Z,26.74
2023-04-22T19:33:50.002Z,26.60
2023-04-22T19:36:21.675Z,26.60
2023-04-22T19:38:52.927Z,26.51
2023-04-22T19:41:23.507Z,26.34
2023-04-22T19:43:53.436Z,26.27
2023-04-22T19:46:24.174Z,26.17
2023-04-22T19:48:56.793Z,26.00
2023-04-22T19:51:28.302Z,25.88
2023-04-22T19:53:59.885Z,25.89
2023-04-22T19:56:31.000Z,25.78
2023-04-22T19:59:02.273Z,25.66
2023-04-22T20:01:33.383Z,25.52
2023-04-22T20:04:05.220Z,25.39
2023-04-22T20:06:36.528Z,25.23
2023-04-22T20:09:08.355Z,25.13
2023-04-22T20:11:38.904Z,25.00
2023-04-22T20:14:11.871Z,24.87
2023-04-22T20:16:44.248Z,24.72
2023-04-22T20:19:15.889Z,24.51
2023-04-22T20:21:49.059Z,24.36
2023-04-22T20:24:22.482Z,24.32
2023-04-22T20:26:54.317Z,24.05
2023-04-22T20:29:25.708Z,23.78
2023-04-22T20:31:56.957Z,23.47
2023-04-22T20:34:27.912Z,23.16
2023-04-22T20:37:00.393Z,22.88
2023-04-22T20:39:31.864Z,22.60
2023-04-22T20:42:04.272Z,22.64
2023-04-22T20:44:38.594Z,22.64
2023-04-22T20:47:10.045Z,22.41
2023-04-22T20:49:41.733Z,22.14
2023-04-22T20:52:13.397Z,21.89
2023-04-22T20:54:45.722Z,21.72
2023-04-22T20:57:17.116Z,21.72
2023-04-22T20:59:48.019Z,21.89
2023-04-22T21:02:20.585Z,21.92
2023-04-22T21:04:51.890Z,21.96
2023-04-22T21:07:26.129Z,22.27
2023-04-22T21:09:56.754Z,22.31
2023-04-22T21:12:27.166Z,22.18
2023-04-22T21:15:01.503Z,22.02
2023-04-22T21:17:40.131Z,21.86
2023-04-22T21:20:15.157Z,21.69
2023-04-22T21:22:46.713Z,21.63
2023-04-22T21:25:23.569Z,21.55
2023-04-22T21:27:54.653Z,21.45
2023-04-22T21:30:25.602Z,21.25
2023-04-22T21:32:57.404Z,21.18
2023-04-22T21:35:28.158Z,20.94
2023-04-22T21:37:58.565Z,20.76
2023-04-22T21:40:29.570Z,20.67
2023-04-22T21:43:02.154Z,20.59
2023-04-22T21:45:34.332Z,20.47
2023-04-22T21:48:05.238Z,20.50
2023-04-22T21:50:38.765Z,20.38
2023-04-22T21:53:09.225Z,20.32
2023-04-22T21:55:39.087Z,20.35
2023-04-22T21:58:09.808Z,20.33
2023-04-22T22:00:49.259Z,20.42
2023-04-22T22:03:20.959Z,20.46
2023-04-22T22:05:51.430Z,20.49
2023-04-22T22:08:22.484Z,20.57
2023-04-22T22:10:53.267Z,20.63
2023-04-22T22:13:25.392Z,20.67
2023-04-22T22:15:57.284Z,20.53
2023-04-22T22:18:27.868Z,20.43
2023-04-22T22:20:59.170Z,20.35
2023-04-22T22:23:32.483Z,20.45
2023-04-22T22:26:02.826Z,20.43
2023-04-22T22:28:33.274Z,20.47
2023-04-22T22:31:04.774Z,20.62
2023-04-22T22:33:35.752Z,20.65
2023-04-22T22:36:05.644Z,20.66
2023-04-22T22:38:36.632Z,20.70
2023-04-22T22:41:07.413Z,20.67
2023-04-22T22:43:38.321Z,20.63
2023-04-22T22:46:08.515Z,20.62
2023-04-22T22:48:39.314Z,20.59
2023-04-22T22:51:11.477Z,20.47
2023-04-22T22:53:43.347Z,20.30
2023-04-22T22:56:16.252Z,20.21
2023-04-22T22:58:49.618Z,20.16
2023-04-22T23:01:21.386Z,19.91
2023-04-22T23:03:52.357Z,19.73
2023-04-22T23:06:23.085Z,19.57
2023-04-22T23:08:53.148Z,19.41
2023-04-22T23:11:24.738Z,19.22
2023-04-22T23:13:55.005Z,19.15
2023-04-22T23:16:25.867Z,19.15
2023-04-22T23:18:57.795Z,19.06
2023-04-22T23:21:29.373Z,18.91
2023-04-22T23:24:02.500Z,18.82
2023-04-22T23:26:33.350Z,18.84
2023-04-22T23:29:04.140Z,18.87
2023-04-22T23:31:36.975Z,18.73
2023-04-22T23:34:08.406Z,18.54
2023-04-22T23:36:39.358Z,18.43
2023-04-22T23:39:11.036Z,18.29
2023-04-22T23:41:42.278Z,18.17
2023-04-22T23:44:13.602Z,18.07
2023-04-22T23:46:44.436Z,17.97
2023-04-22T23:49:14.818Z,17.92
2023-04-22T23:51:46.547Z,17.86
2023-04-22T23:54:18.978Z,17.79
2023-04-22T23:56:50.233Z,17.72
2023-04-22T23:59:21.027Z,17.65
